Aérodrome :
LOGIN :

S'inscrire | Disclaimer

   EN    FR    IT 

 










Légende :    VFR   VFR Marginal   IFR   IFR Intensif   IFR Très Intensif
Visi : 
Plafond : 
>= 8 km
>= 3000ft
5 à 8 km
1000 à 3000 ft
1500m à 5 km
500 à 1000 ft
800 à 1500m
200 à 500 ft
< 800m
< 200 ft
Symboles :   Orages  Brouillard  Fortes neiges  Fortes précipitations  Vent > 20 kt
SIGMETs :   Divers  Orages  Givrage  Turbulence  Onde Orograph.  Cendres Volcan.






- Altitude de l'aérodrome : 2077 ft
- Code IATA : FMM


EDJA - Memmingen

DERNIER METAR :
  • 241150Z 23004KT 190V260 9999 BKN016 10/08 Q1020

METARs EXPIRÉS :
  • 241120Z VRB02KT 9999 BKN010 07/07 Q1021
  • 241050Z VRB02KT 9999 SCT006 BKN008 OVC045 07/06 Q1022
  • 241020Z 10004KT 9999 FEW005 OVC008 06/05 Q1022
  • 240950Z 11003KT 9999 FEW005 OVC009 05/05 Q1023
  • 240920Z 09003KT 070V130 8000 -DZ OVC012 05/04 Q1023

TAF TAF EDJA
Valide du 24 à 12h jusqu'au 24 à 21h UTC


241100Z 2412/2421 23010KT 9999 BKN008 OVC040
BECMG 2412/2413 SCT010 SCT040



MET'MAP, la Météo Aéronautique d'un coup d'oeil ! - Copyright ORBIFLY Décembre 2007 - Disclaimer

ORBIFLY MET'MAP TEAM :

Programmation & Développement : Alexandra Zaïnal
Sur une idée originale de : Baudouin d'Aumeries
Assistance à la programmation : Marc-Olivier Méhu
Soutien technique & logistique : Manuel Goepfert

Contact : metmap@orbifly.com




SOURCES & CREDITS :

   NOAA